Las Vegas, Nevada (DRI) Weather observations

Data are for observation ending at time listed.
 Day   Time    Ave.   Ave.  Ave.  Vector   Max.   Stn.    Total    Solar   Ave.  
  of    of     Air    Rel.  Wind   Wind    Wind   Baro.  Precip.   Rad.    Soil  
Year   Day     Temp.  Hum.  Speed  Dir.    Gust   Pres.                    Temp. 
2014   (PST)    F      %     mph   deg.    mph     mb.     in.     W/m2     F   
------------------------------------------------------------------------------
 353   22:20   49.0    69    0.3     7      1.6   950.9    0.00       0    57.6
 353   22:30   49.6    67    0.3     6      1.6   950.9    0.00       0    57.6
 353   22:40   49.6    67    0.0    32      0.5   950.8    0.00       0    57.5
 353   22:50   49.0    68    0.0     0      0.0   950.8    0.00       0    57.5
 353   23:00   48.8    69    0.0     0      0.0   950.7    0.00       0    57.4
 353   23:10   47.8    72    0.0     0      0.0   950.5    0.00       0    57.3
 353   23:20   47.3    73    0.0     0      0.0   950.5    0.00       0    57.3
 353   23:30   47.1    74    0.0     0      0.0   950.5    0.00       0    57.2
 353   23:40   47.0    74    0.0    12      0.9   950.5    0.00       0    57.2
 353   23:50   47.6    73    0.5    40      2.0   950.5    0.00       0    57.1
 354    0:00   48.1    72    0.0    56      0.9   950.4    0.00       0    57.1
 354    0:10   48.0    72    0.0    55      0.2   950.0    0.00       0    57.0
 354    0:20   47.4    74    0.0     0      0.0   949.6    0.00       0    56.9
 354    0:30   46.9    75    0.0     0      0.0   949.7    0.00       0    56.9
 354    0:40   47.2    75    0.3   310      2.7   950.2    0.00       0    56.8
 354    0:50   48.0    74    0.1   340      1.6   950.2    0.00       0    56.7
 354    1:00   47.7    75    0.0     0      0.0   950.3    0.00       0    56.7
 354    1:10   47.6    75    0.0     0      0.0   950.2    0.00       0    56.6
 354    1:20   47.6    74    0.0     0      0.0   950.1    0.00       0    56.6
 354    1:30   46.9    76    0.2   322      0.9   950.0    0.00       0    56.5
 354    1:40   46.2    78    0.0     0      0.0   949.9    0.00       0    56.5
 354    1:50   46.0    78    0.1   313      1.3   949.8    0.00       0    56.4
 354    2:00   45.6    77    0.5   182      2.6   949.9    0.00       0    56.4
 354    2:10   45.8    77    0.8   156      3.4   950.0    0.00       0    56.3
 354    2:20   45.5    77    0.6   174      2.5   950.1    0.00       0    56.2
 354    2:30   45.2    77    1.2   173      2.6   950.1    0.00       0    56.2
 354    2:40   44.9    78    1.2   183      2.7   950.1    0.00       0    56.1
 354    2:50   44.7    78    1.2   178      2.6   950.1    0.00       0    56.1
 354    3:00   44.5    79    0.4   156      1.7   950.1    0.00       0    56.0
 354    3:10   44.2    79    0.0     0      0.0   950.0    0.00       0    56.0
 354    3:20   43.7    80    0.0     0      0.0   950.1    0.00       0    55.9
 354    3:30   43.6    81    0.6    17      1.6   949.9    0.00       0    55.8
 354    3:40   43.6    82    0.0    15      0.6   949.7    0.00       0    55.8
 354    3:50   43.7    83    0.2    32      1.5   949.5    0.00       0    55.7
 354    4:00   43.8    82    0.1    41      1.3   949.4    0.00       0    55.7
 354    4:10   43.3    82    0.0     0      0.0   949.5    0.00       0    55.6
 354    4:20   43.2    84    0.0    34      0.6   949.5    0.00       0    55.5
 354    4:30   43.4    83    0.0    34      1.0   949.6    0.00       0    55.5
 354    4:40   43.1    83    0.0    47      0.4   949.6    0.00       0    55.4
 354    4:50   42.5    84    0.0     0      0.0   949.7    0.00       0    55.4
 354    5:00   42.7    85    0.0   107      0.4   950.0    0.00       0    55.3
 354    5:10   43.2    84    0.0     0      0.0   950.1    0.00       0    55.2
 354    5:20   43.3    83    0.2   151      1.7   950.2    0.00       0    55.2
 354    5:30   43.4    82    0.0     0      0.0   950.2    0.00       0    55.1
 354    5:40   43.2    82    1.0   159      2.8   950.0    0.00       0    55.1
 354    5:50   43.1    81    1.4   171      2.9   950.1    0.00       0    55.0
 354    6:00   42.8    80    2.3   177      4.3   949.9    0.00       0    54.9
 354    6:10   42.9    79    2.0   166      4.2   949.8    0.00       0    54.9
 354    6:20   43.0    79    0.7   146      2.2   949.5    0.00       0    54.8
 354    6:30   43.1    79    0.4   157      1.8   949.5    0.00       0    54.8
 354    6:40   43.2    80    0.0   156      0.2   949.3    0.00       2    54.7
 354    6:50   43.0    80    0.0   228      0.2   949.5    0.00       9    54.6
 354    7:00   43.6    80    0.0     0      0.0   949.6    0.00      11    54.6
 354    7:10   44.1    80    0.0     0      0.0   949.9    0.00      16    54.5
 354    7:20   44.5    79    0.0   217      0.8   950.1    0.00      16    54.5
 354    7:30   44.8    78    0.0     0      0.0   950.2    0.00      22    54.4
 354    7:40   45.1    78    0.0     0      0.0   950.2    0.00      29    54.4
 354    7:50   45.3    77    0.0     0      0.0   950.3    0.00      34    54.3
 354    8:00   45.1    77    0.6    52      1.8   950.4    0.00      38    54.3
 354    8:10   44.7    77    0.1    38      1.2   950.7    0.00      45    54.2
 354    8:20   44.7    77    0.3    47      1.9   950.8    0.00      60    54.2
 354    8:30   44.8    76    0.1    51      1.2   950.8    0.00      69    54.1
 354    8:40   45.2    76    0.9    26      2.2   950.8    0.00      81    54.1
 354    8:50   45.4    76    0.4    37      2.0   950.9    0.00     108    54.1
 354    9:00   45.8    75    1.1    39      2.4   951.0    0.00     141    54.1
 354    9:10   46.3    74    0.2    46      1.5   951.1    0.00     157    54.0
 354    9:20   47.5    72    0.0    55      0.2   951.4    0.00     165    54.0
 354    9:30   49.1    68    0.1    45      1.1   951.4    0.00     263    54.0
 354    9:40   51.0    64    0.2    50      2.3   951.4    0.00     340    54.0
 354    9:50   52.1    61    0.3    34      1.6   951.3    0.00     352    53.9
 354   10:00   52.3    60    0.2    32      2.3   951.0    0.00     300    53.9
 354   10:10   52.7    59    0.1   197      1.5   950.8    0.00     275    53.9
 354   10:20   52.5    59    1.0   214      3.0   950.8    0.00     355    54.0
 354   10:30   52.5    58    1.4   192      3.4   950.6    0.00     346    54.0
 354   10:40   52.2    60    1.0   221      2.9   950.4    0.00     256    54.0
 354   10:50   52.3    59    0.9   194      2.2   950.2    0.00     231    54.1
 354   11:00   53.0    58    0.7    25      2.0   950.1    0.00     306    54.1
 354   11:10   54.1    56    1.6     9      3.4   950.0    0.00     539    54.1
 354   11:20   54.2    56    1.4    19      3.4   950.0    0.00     476    54.2
 354   11:30   55.0    54    1.3   132      4.0   949.8    0.00     533    54.3
 354   11:40   55.2    54    1.2   180      4.9   949.6    0.00     530    54.4
 354   11:50   56.6    51    1.3    34      3.4   949.6    0.00     540    54.5
 354   12:00   56.9    51    1.1    38      2.7   949.5    0.00     544    54.6
 354   12:10   57.1    50    1.1   234      2.9   949.3    0.00     411    54.7
 354   12:20   56.3    51    1.4   159      4.2   949.1    0.00     434    54.8
 354   12:30   58.2    48    0.3    56      2.8   948.8    0.00     427    54.9
 354   12:40   58.0    48    1.4    39      4.2   948.5    0.00     436    55.0
 354   12:50   57.7    48    1.0    40      3.5   948.5    0.00     471    55.1
 354   13:00   57.9    48    1.9    40      4.3   948.3    0.00     510    55.3
 354   13:10   57.4    49    1.5    42      4.0   948.2    0.00     285    55.5
 354   13:20   56.2    50    1.8    39      4.3   948.1    0.00     213    55.7
 354   13:30   56.5    49    2.2    20      3.9   948.2    0.00     372    55.8
 354   13:40   57.8    48    1.2    33      3.7   948.1    0.00     379    56.0
 354   13:50   57.4    48    1.1    42      3.7   947.9    0.00     202    56.2
 354   14:00   56.5    50    0.9    34      3.0   947.7    0.00     251    56.3
 354   14:10   57.1    50    1.4    47      4.3   947.3    0.00     249    56.5
 354   14:20   56.7    50    1.4   162      3.2   947.0    0.00     200    56.7
 354   14:30   57.7    48    0.6    53      2.3   947.1    0.00     226    56.8
 354   14:40   57.3    49    1.1    46      2.5   947.4    0.00     171    57.0
 354   14:50   57.5    49    1.5    46      3.0   947.5    0.00     245    57.1
 354   15:00   58.6    48    1.5    37      3.9   947.7    0.00     255    57.3
 354   15:10   58.0    49    1.3    30      3.1   947.8    0.00     211    57.4
 354   15:20   58.1    49    1.3    46      3.3   947.8    0.00     196    57.5
 354   15:30   57.9    50    1.1    47      3.6   948.1    0.00     139    57.7
 354   15:40   56.6    52    1.5    49      3.4   948.2    0.00      95    57.7
 354   15:50   55.7    53    1.1    30      2.6   948.7    0.00      45    57.8
 354   16:00   55.3    54    0.6    55      2.1   948.6    0.00      25    57.9
 354   16:10   55.2    54    0.2    47      2.0   948.8    0.00      18    57.9
 354   16:20   55.2    54    0.4   179      2.8   948.5    0.00      12    58.0
 354   16:30   54.7    56    1.1   169      3.4   948.3    0.00       4    58.0
 354   16:40   54.6    56    0.0    40      0.5   948.3    0.00       3    58.1
 354   16:50   54.5    55    0.2   212      2.7   948.5    0.00       0    58.1
 354   17:00   54.3    56    0.2    41      1.2   948.6    0.00       0    58.1
 354   17:10   53.9    57    0.1    48      1.3   948.9    0.00       0    58.1
 354   17:20   53.6    57    0.0     0      0.0   949.0    0.00       0    58.2
 354   17:30   53.1    59    0.0     0      0.0   949.0    0.00       0    58.2
 354   17:40   52.5    60    0.0     0      0.0   949.0    0.00       0    58.2
 354   17:50   51.9    62    0.0     0      0.0   949.2    0.00       0    58.2
 354   18:00   51.9    61    0.1    33      1.2   949.4    0.00       0    58.2
 354   18:10   52.1    61    0.1    46      1.6   949.4    0.00       0    58.1
 354   18:20   52.1    61    0.1    11      1.2   949.4    0.00       0    58.1
 354   18:30   52.3    61    0.0   352      0.8   949.3    0.00       0    58.1
 354   18:40   51.9    63    0.2   340      1.8   949.1    0.00       0    58.1
 354   18:50   52.4    62    0.7   351      2.0   949.4    0.00       0    58.0
 354   19:00   52.3    62    0.0     0      0.0   949.0    0.00       0    58.0
 354   19:10   51.5    64    0.0     0      0.0   949.1    0.00       0    58.0
 354   19:20   50.9    65    0.0     1      0.6   949.0    0.00       0    58.0
 354   19:30   50.4    66    0.0     0      0.0   949.0    0.00       0    57.9
 354   19:40   50.0    67    0.0     0      0.0   949.1    0.00       0    57.9
 354   19:50   50.0    67    0.0     0      0.0   949.4    0.00       0    57.9
 354   20:00   50.3    67    0.0     0      0.0   949.6    0.00       0    57.8
 354   20:10   50.5    67    0.0     0      0.0   949.5    0.00       0    57.8
 354   20:20   50.1    68    0.0     0      0.0   949.4    0.00       0    57.7
 354   20:30   49.5    69    0.0     0      0.0   949.5    0.00       0    57.7
 354   20:40   49.3    69    0.0     0      0.0   949.6    0.00       0    57.6
 354   20:50   49.4    69    0.0     0      0.0   949.8    0.00       0    57.5
 354   21:00   49.0    70    0.0     0      0.0   949.7    0.00       0    57.5
 354   21:10   49.0    70    0.0     0      0.0   949.9    0.00       0    57.5
 354   21:20   48.9    70    0.0     0      0.0   950.0    0.00       0    57.4
 354   21:30   48.9    70    0.0     0      0.0   949.8    0.00       0    57.4
 354   21:40   48.9    69    0.0   144      0.8   949.8    0.00       0    57.3
 354   21:50   48.2    70    0.0     0      0.0   949.9    0.00       0    57.3
 354   22:00   48.3    71    0.0     0      0.0   949.9    0.00       0    57.2
 354   22:10   48.9    70    0.1    65      1.5   949.8    0.00       0    57.1

Return to Las Vegas, Nevada graphs page.


Western Regional Climate Center,wrcc@dri.edu